Time;durP1;ratioP1;P1;durP2;ratioP2;P2;SDS_P1;SDS_P2;PMS_P1;PMS_P2;Temp;Humidity;BMP_temperature;BMP_pressure;BME280_temperature;BME280_humidity;BME280_pressure;Samples;Min_cycle;Max_cycle;Signal;HPM_P1;HPM_P2
2022/09/22 00:02:20;;;;;;;6.23;3.60;;;;;;;;;;4969522;28;20242;-74
2022/09/22 00:04:45;;;;;;;4.57;3.37;;;;;;;;;;4969006;28;20261;-75
2022/09/22 00:07:11;;;;;;;6.73;3.50;;;;;;;;;;4973735;28;20203;-75
2022/09/22 00:09:36;;;;;;;5.70;3.10;;;;;;;;;;4971621;28;20201;-75
2022/09/22 00:12:01;;;;;;;4.97;3.47;;;;;;;;;;4973700;28;20566;-74
2022/09/22 00:14:27;;;;;;;4.37;3.50;;;;;;;;;;4971010;28;20624;-74
2022/09/22 00:16:54;;;;;;;7.57;4.30;;;;;;;;;;4954674;28;20200;-74
2022/09/22 00:19:24;;;;;;;3.40;3.10;;;;;;;;;;4959824;28;20220;-75
2022/09/22 00:21:50;;;;;;;4.97;3.13;;;;;;;;;;4971195;28;20188;-74
2022/09/22 00:24:16;;;;;;;4.63;3.47;;;;;;;;;;4968055;28;20183;-75
2022/09/22 00:26:42;;;;;;;4.23;3.00;;;;;;;;;;4971363;28;20204;-75
2022/09/22 00:29:08;;;;;;;5.10;3.70;;;;;;;;;;4972060;28;20196;-75
2022/09/22 00:31:34;;;;;;;5.13;2.83;;;;;;;;;;4972386;28;20259;-75
2022/09/22 00:33:59;;;;;;;8.53;4.13;;;;;;;;;;4972089;28;20259;-75
2022/09/22 00:36:26;;;;;;;5.20;3.60;;;;;;;;;;4966364;28;20232;-74
2022/09/22 00:38:52;;;;;;;6.10;3.80;;;;;;;;;;4971817;28;20579;-75
2022/09/22 00:41:19;;;;;;;8.43;5.03;;;;;;;;;;4964681;28;20192;-75
2022/09/22 00:43:49;;;;;;;5.57;3.80;;;;;;;;;;4968757;28;20663;-75
2022/09/22 00:46:17;;;;;;;8.50;3.87;;;;;;;;;;4968141;28;20181;-74
2022/09/22 00:48:56;;;;;;;5.90;4.10;;;;;;;;;;4966427;28;20282;-74
2022/09/22 00:51:24;;;;;;;5.80;3.77;;;;;;;;;;4966593;28;20188;-74
2022/09/22 00:53:49;;;;;;;4.03;3.43;;;;;;;;;;4970266;28;20183;-74
2022/09/22 00:56:17;;;;;;;7.67;4.73;;;;;;;;;;4965611;28;20185;-74
2022/09/22 00:58:45;;;;;;;5.50;3.70;;;;;;;;;;4952167;28;20594;-74
2022/09/22 01:01:10;;;;;;;4.90;4.00;;;;;;;;;;4964418;28;20184;-75
2022/09/22 01:03:38;;;;;;;8.77;4.23;;;;;;;;;;4970846;28;20638;-75
2022/09/22 01:06:05;;;;;;;6.73;3.97;;;;;;;;;;4971496;28;20176;-74
2022/09/22 01:08:30;;;;;;;8.20;4.23;;;;;;;;;;4970658;28;20250;-74
2022/09/22 01:10:56;;;;;;;4.50;4.10;;;;;;;;;;4974243;28;20265;-74
2022/09/22 01:13:21;;;;;;;6.10;4.53;;;;;;;;;;4963398;28;20181;-74
2022/09/22 01:15:52;;;;;;;5.17;3.83;;;;;;;;;;4956518;28;20176;-74
2022/09/22 01:18:28;;;;;;;6.80;5.07;;;;;;;;;;4964503;28;20211;-74
2022/09/22 01:21:05;;;;;;;7.23;4.63;;;;;;;;;;4967729;28;20262;-74
2022/09/22 01:23:33;;;;;;;5.43;4.30;;;;;;;;;;4971716;28;20187;-75
2022/09/22 01:26:07;;;;;;;6.73;4.50;;;;;;;;;;4969099;28;20168;-75
2022/09/22 01:28:33;;;;;;;10.27;4.83;;;;;;;;;;4968131;28;20589;-75
2022/09/22 01:31:04;;;;;;;6.07;4.33;;;;;;;;;;4969050;28;20176;-74
2022/09/22 01:33:38;;;;;;;5.03;4.43;;;;;;;;;;4971390;28;20173;-74
2022/09/22 01:36:06;;;;;;;5.73;4.57;;;;;;;;;;4965159;28;20179;-74
2022/09/22 01:38:35;;;;;;;6.10;4.67;;;;;;;;;;4970255;28;20196;-75
2022/09/22 01:41:00;;;;;;;6.50;5.03;;;;;;;;;;4969708;28;20202;-75
2022/09/22 01:43:31;;;;;;;7.77;5.03;;;;;;;;;;4971659;28;20546;-73
2022/09/22 01:45:59;;;;;;;7.93;5.37;;;;;;;;;;4970650;28;20181;-73
2022/09/22 01:48:26;;;;;;;6.67;4.80;;;;;;;;;;4969631;28;20694;-74
2022/09/22 01:50:54;;;;;;;6.93;4.83;;;;;;;;;;4956019;28;20181;-73
2022/09/22 01:53:21;;;;;;;6.23;5.50;;;;;;;;;;4965725;28;20184;-73
2022/09/22 01:55:50;;;;;;;7.17;5.70;;;;;;;;;;4969742;28;20176;-73
2022/09/22 01:58:15;;;;;;;7.30;5.13;;;;;;;;;;4965784;28;20204;-73
2022/09/22 02:00:43;;;;;;;5.83;4.60;;;;;;;;;;4953614;28;20657;-74
2022/09/22 02:03:18;;;;;;;8.27;4.33;;;;;;;;;;4970808;28;20199;-74
2022/09/22 02:05:46;;;;;;;6.93;5.37;;;;;;;;;;4969760;28;20234;-74
2022/09/22 02:08:18;;;;;;;8.93;5.47;;;;;;;;;;4970503;28;20208;-73
2022/09/22 02:10:45;;;;;;;7.87;5.63;;;;;;;;;;4957640;28;20550;-73
2022/09/22 02:13:10;;;;;;;8.67;6.07;;;;;;;;;;4970312;28;20185;-74
2022/09/22 02:18:25;;;;;;;7.17;5.57;;;;;;;;;;4971068;28;20586;-73
2022/09/22 02:20:50;;;;;;;11.97;6.27;;;;;;;;;;4970931;28;20247;-73
2022/09/22 02:23:16;;;;;;;7.20;5.33;;;;;;;;;;4971278;28;20209;-73
2022/09/22 02:25:42;;;;;;;8.73;5.80;;;;;;;;;;4963820;28;20187;-73
2022/09/22 02:28:07;;;;;;;8.90;5.50;;;;;;;;;;4963970;28;20290;-73
2022/09/22 02:30:33;;;;;;;10.60;5.70;;;;;;;;;;4969497;28;20263;-73
2022/09/22 02:32:59;;;;;;;11.63;6.27;;;;;;;;;;4973052;28;20223;-73
2022/09/22 02:35:27;;;;;;;10.03;6.77;;;;;;;;;;4971259;28;20174;-73
2022/09/22 02:38:04;;;;;;;7.47;5.83;;;;;;;;;;4973167;28;20219;-73
2022/09/22 02:40:42;;;;;;;8.27;6.53;;;;;;;;;;4973473;28;20650;-76
2022/09/22 02:43:14;;;;;;;8.03;5.77;;;;;;;;;;4965238;28;20212;-73
2022/09/22 02:45:46;;;;;;;9.90;5.50;;;;;;;;;;4973686;28;20681;-76
2022/09/22 02:48:19;;;;;;;8.50;5.77;;;;;;;;;;4965550;28;20263;-73
2022/09/22 02:50:44;;;;;;;10.13;6.53;;;;;;;;;;4967935;28;20203;-73
2022/09/22 02:53:11;;;;;;;8.73;6.30;;;;;;;;;;4974625;28;20219;-73
2022/09/22 02:55:36;;;;;;;8.07;5.73;;;;;;;;;;4972114;28;20267;-73
2022/09/22 02:58:01;;;;;;;12.97;6.10;;;;;;;;;;4972988;28;20287;-74
2022/09/22 03:00:27;;;;;;;9.37;5.60;;;;;;;;;;4972643;28;20176;-73
2022/09/22 03:02:52;;;;;;;9.87;6.63;;;;;;;;;;4962627;28;20176;-73
2022/09/22 03:05:17;;;;;;;7.23;5.90;;;;;;;;;;4963327;28;20180;-73
2022/09/22 03:07:43;;;;;;;7.20;6.40;;;;;;;;;;4972227;28;20200;-76
2022/09/22 03:10:08;;;;;;;8.83;6.33;;;;;;;;;;4965738;28;20655;-76
2022/09/22 03:12:33;;;;;;;8.27;6.50;;;;;;;;;;4968746;28;20269;-74
2022/09/22 03:14:58;;;;;;;8.70;6.57;;;;;;;;;;4972944;28;20266;-75
2022/09/22 03:17:24;;;;;;;10.13;6.57;;;;;;;;;;4972133;28;20192;-75
2022/09/22 03:19:49;;;;;;;10.17;5.80;;;;;;;;;;4973889;28;20484;-75
2022/09/22 03:22:14;;;;;;;7.00;6.30;;;;;;;;;;4973310;28;20527;-74
2022/09/22 03:24:40;;;;;;;10.07;6.40;;;;;;;;;;4963967;28;20721;-74
2022/09/22 03:27:05;;;;;;;10.20;5.93;;;;;;;;;;4971799;28;20725;-74
2022/09/22 03:29:30;;;;;;;8.17;5.73;;;;;;;;;;4973725;28;20196;-74
2022/09/22 03:31:55;;;;;;;10.47;6.43;;;;;;;;;;4973175;28;20223;-75
2022/09/22 03:34:20;;;;;;;7.97;5.93;;;;;;;;;;4973302;28;20535;-75
2022/09/22 03:36:46;;;;;;;11.17;6.70;;;;;;;;;;4970836;28;20220;-74
2022/09/22 03:39:11;;;;;;;6.47;5.70;;;;;;;;;;4973513;28;20709;-75
2022/09/22 03:41:36;;;;;;;7.67;5.60;;;;;;;;;;4959989;28;20366;-72
2022/09/22 03:44:01;;;;;;;9.13;5.60;;;;;;;;;;4966419;28;20181;-74
2022/09/22 03:46:27;;;;;;;10.07;6.40;;;;;;;;;;4971937;28;20216;-75
2022/09/22 03:48:52;;;;;;;9.10;5.50;;;;;;;;;;4973288;28;20196;-75
2022/09/22 03:51:18;;;;;;;9.17;6.57;;;;;;;;;;4973596;28;20563;-75
2022/09/22 03:53:43;;;;;;;9.37;6.90;;;;;;;;;;4973538;28;20180;-74
2022/09/22 03:56:10;;;;;;;10.90;6.30;;;;;;;;;;4973208;28;20208;-75
2022/09/22 03:58:36;;;;;;;7.43;5.90;;;;;;;;;;4965805;28;20232;-74
2022/09/22 04:01:01;;;;;;;7.63;6.67;;;;;;;;;;4973341;28;20192;-74
2022/09/22 04:03:27;;;;;;;7.33;6.17;;;;;;;;;;4953907;28;20567;-74
2022/09/22 04:05:52;;;;;;;11.10;7.20;;;;;;;;;;4973252;28;20188;-73
2022/09/22 04:08:17;;;;;;;9.43;6.00;;;;;;;;;;4972629;28;20220;-74
2022/09/22 04:10:44;;;;;;;9.67;7.03;;;;;;;;;;4972904;28;20558;-74
2022/09/22 04:13:09;;;;;;;12.27;8.50;;;;;;;;;;4968543;28;20184;-73
2022/09/22 04:15:34;;;;;;;10.67;6.83;;;;;;;;;;4963799;28;20651;-74
2022/09/22 04:17:59;;;;;;;10.10;6.53;;;;;;;;;;4967612;28;20756;-74
2022/09/22 04:20:26;;;;;;;14.97;7.63;;;;;;;;;;4972365;28;20195;-74
2022/09/22 04:22:51;;;;;;;11.00;8.20;;;;;;;;;;4973088;28;20541;-74
2022/09/22 04:25:17;;;;;;;14.77;9.00;;;;;;;;;;4970860;28;20181;-74
2022/09/22 04:27:42;;;;;;;11.73;8.70;;;;;;;;;;4971991;28;20259;-74
2022/09/22 04:30:07;;;;;;;13.93;8.77;;;;;;;;;;4972859;28;20272;-75
2022/09/22 04:32:32;;;;;;;13.23;9.10;;;;;;;;;;4971843;28;20654;-75
2022/09/22 04:34:58;;;;;;;16.17;9.07;;;;;;;;;;4966814;28;20644;-74
2022/09/22 04:37:23;;;;;;;11.10;8.10;;;;;;;;;;4968818;28;20239;-74
2022/09/22 04:39:49;;;;;;;10.67;7.57;;;;;;;;;;4971012;28;20674;-74
2022/09/22 04:42:14;;;;;;;12.20;8.43;;;;;;;;;;4955170;28;20199;-73
2022/09/22 04:44:39;;;;;;;10.90;8.00;;;;;;;;;;4972166;28;20186;-74
2022/09/22 04:47:04;;;;;;;13.73;9.03;;;;;;;;;;4970691;28;20203;-74
2022/09/22 04:49:30;;;;;;;9.43;7.40;;;;;;;;;;4972183;28;20756;-74
2022/09/22 04:51:55;;;;;;;11.77;8.00;;;;;;;;;;4964920;28;20188;-74
2022/09/22 04:54:20;;;;;;;11.43;8.63;;;;;;;;;;4968129;28;20561;-74
2022/09/22 04:56:45;;;;;;;12.90;8.50;;;;;;;;;;4967648;28;20654;-73
2022/09/22 04:59:10;;;;;;;9.30;7.60;;;;;;;;;;4970423;28;20208;-74
2022/09/22 05:01:36;;;;;;;10.40;7.53;;;;;;;;;;4971914;28;20413;-73
2022/09/22 05:04:01;;;;;;;12.77;7.63;;;;;;;;;;4970977;28;20187;-74
2022/09/22 05:06:26;;;;;;;10.93;7.47;;;;;;;;;;4971877;28;20184;-74
2022/09/22 05:08:51;;;;;;;9.60;7.33;;;;;;;;;;4963272;28;20259;-74
2022/09/22 05:11:20;;;;;;;10.93;8.07;;;;;;;;;;4970473;28;20192;-74
2022/09/22 05:13:46;;;;;;;9.20;7.43;;;;;;;;;;4969424;28;20173;-74
2022/09/22 05:16:11;;;;;;;13.57;8.83;;;;;;;;;;4963590;28;20681;-73
2022/09/22 05:18:38;;;;;;;13.63;7.90;;;;;;;;;;4969564;28;20702;-74
2022/09/22 05:21:03;;;;;;;14.57;8.17;;;;;;;;;;4971764;28;20181;-74
2022/09/22 05:23:30;;;;;;;10.50;7.47;;;;;;;;;;4968462;28;20187;-74
2022/09/22 05:25:55;;;;;;;13.43;8.27;;;;;;;;;;4947001;28;20263;-74
2022/09/22 05:28:21;;;;;;;11.27;8.50;;;;;;;;;;4967016;28;20246;-74
2022/09/22 05:30:48;;;;;;;12.70;8.57;;;;;;;;;;4968706;28;20180;-75
2022/09/22 05:33:13;;;;;;;11.37;8.43;;;;;;;;;;4966159;28;20207;-75
2022/09/22 05:35:38;;;;;;;10.40;8.40;;;;;;;;;;4969534;28;20172;-75
2022/09/22 05:38:04;;;;;;;9.87;7.97;;;;;;;;;;4968648;28;20222;-75
2022/09/22 05:40:29;;;;;;;9.73;7.60;;;;;;;;;;4967135;28;20646;-74
2022/09/22 05:42:55;;;;;;;13.30;9.10;;;;;;;;;;4960996;28;20207;-74
2022/09/22 05:45:20;;;;;;;12.87;8.77;;;;;;;;;;4968339;28;20188;-73
2022/09/22 05:47:46;;;;;;;14.43;8.57;;;;;;;;;;4968210;28;20292;-73
2022/09/22 05:50:12;;;;;;;14.10;8.33;;;;;;;;;;4970915;28;20235;-73
2022/09/22 05:52:37;;;;;;;12.77;9.37;;;;;;;;;;4971964;28;20718;-73
2022/09/22 05:55:03;;;;;;;14.03;9.07;;;;;;;;;;4968250;28;20275;-74
2022/09/22 05:57:30;;;;;;;12.97;9.53;;;;;;;;;;4966565;28;20188;-73
2022/09/22 05:59:55;;;;;;;12.47;9.60;;;;;;;;;;4959758;28;20181;-73
2022/09/22 06:02:22;;;;;;;17.13;11.07;;;;;;;;;;4963177;28;20185;-73
2022/09/22 06:04:47;;;;;;;15.63;10.17;;;;;;;;;;4968534;28;20183;-73
2022/09/22 06:07:12;;;;;;;15.23;9.97;;;;;;;;;;4967753;28;20204;-74
2022/09/22 06:09:38;;;;;;;13.87;10.13;;;;;;;;;;4975170;28;20259;-74
2022/09/22 06:12:03;;;;;;;12.33;10.33;;;;;;;;;;4973566;28;20716;-74
2022/09/22 06:14:28;;;;;;;15.20;11.23;;;;;;;;;;4972601;28;20450;-73
2022/09/22 06:16:54;;;;;;;17.17;11.83;;;;;;;;;;4970863;28;20181;-74
2022/09/22 06:19:21;;;;;;;14.50;11.20;;;;;;;;;;4951891;28;20223;-73
2022/09/22 06:21:46;;;;;;;17.53;11.50;;;;;;;;;;4973236;28;20176;-74
2022/09/22 06:24:11;;;;;;;16.80;12.50;;;;;;;;;;4975932;28;20239;-73
2022/09/22 06:26:36;;;;;;;17.23;11.80;;;;;;;;;;4973506;28;20208;-73
2022/09/22 06:29:02;;;;;;;20.97;12.40;;;;;;;;;;4974607;28;20208;-73
2022/09/22 06:31:27;;;;;;;16.67;11.07;;;;;;;;;;4972142;28;20558;-73
2022/09/22 06:33:53;;;;;;;14.80;11.53;;;;;;;;;;4975083;28;20638;-76
2022/09/22 06:36:29;;;;;;;18.97;12.43;;;;;;;;;;4952447;28;20181;-75
2022/09/22 06:38:57;;;;;;;18.47;12.47;;;;;;;;;;4972451;28;20204;-74
2022/09/22 06:41:23;;;;;;;16.80;12.90;;;;;;;;;;4973876;28;20176;-75
2022/09/22 06:43:49;;;;;;;18.20;12.73;;;;;;;;;;4971958;28;20191;-75
2022/09/22 06:46:17;;;;;;;15.80;13.13;;;;;;;;;;4956864;28;20282;-75
2022/09/22 06:48:42;;;;;;;15.47;12.17;;;;;;;;;;4962155;28;20208;-74
2022/09/22 06:51:08;;;;;;;11.77;10.57;;;;;;;;;;4972722;28;20181;-74
2022/09/22 06:53:33;;;;;;;16.03;12.57;;;;;;;;;;4964776;28;20185;-75
2022/09/22 06:56:02;;;;;;;15.40;11.70;;;;;;;;;;4971288;28;20192;-74
2022/09/22 06:58:27;;;;;;;14.50;12.97;;;;;;;;;;4957377;28;20299;-73
2022/09/22 07:00:53;;;;;;;14.33;12.23;;;;;;;;;;4972158;28;20271;-73
2022/09/22 07:03:19;;;;;;;12.50;10.87;;;;;;;;;;4973733;28;20235;-73
2022/09/22 07:05:59;;;;;;;16.23;11.30;;;;;;;;;;4954439;28;20188;-74
2022/09/22 07:08:25;;;;;;;15.30;11.63;;;;;;;;;;4968604;28;20204;-75
2022/09/22 07:10:51;;;;;;;13.87;11.03;;;;;;;;;;4971003;28;20185;-73
2022/09/22 07:13:17;;;;;;;11.00;9.80;;;;;;;;;;4972182;28;20210;-74
2022/09/22 07:15:42;;;;;;;13.90;11.37;;;;;;;;;;4970762;28;20638;-74
2022/09/22 07:18:08;;;;;;;14.13;10.27;;;;;;;;;;4973863;28;20208;-74
2022/09/22 07:20:34;;;;;;;11.25;10.10;;;;;;;;;;4971282;28;20588;-75
2022/09/22 07:22:59;;;;;;;12.02;10.35;;;;;;;;;;4974114;28;20198;-74
2022/09/22 07:25:26;;;;;;;9.98;8.98;;;;;;;;;;4973595;28;20211;-74
2022/09/22 07:27:52;;;;;;;15.02;10.73;;;;;;;;;;4969522;28;20247;-74
2022/09/22 07:30:19;;;;;;;9.90;8.90;;;;;;;;;;4973730;28;20185;-74
2022/09/22 07:32:44;;;;;;;11.10;8.85;;;;;;;;;;4974481;28;20176;-74
2022/09/22 07:35:09;;;;;;;12.70;8.65;;;;;;;;;;4969305;28;20199;-74
2022/09/22 07:37:34;;;;;;;14.27;9.25;;;;;;;;;;4974209;28;20195;-74
2022/09/22 07:40:02;;;;;;;8.80;7.28;;;;;;;;;;4970476;28;20254;-74
2022/09/22 07:42:27;;;;;;;8.90;8.07;;;;;;;;;;4972365;28;20643;-74
2022/09/22 07:50:21;;;;;;;9.52;7.28;;;;;;;;;;4969046;28;20826;-71
2022/09/22 07:52:51;;;;;;;9.68;8.15;;;;;;;;;;4952181;28;20209;-74
2022/09/22 07:55:16;;;;;;;10.63;7.70;;;;;;;;;;4968992;28;20176;-74
2022/09/22 07:57:41;;;;;;;10.52;7.75;;;;;;;;;;4973072;28;20597;-74
2022/09/22 08:00:07;;;;;;;8.73;7.55;;;;;;;;;;4972115;28;20191;-73
2022/09/22 08:02:32;;;;;;;10.65;7.90;;;;;;;;;;4972323;28;20287;-72
2022/09/22 08:05:01;;;;;;;8.00;6.90;;;;;;;;;;4972622;28;20311;-75
2022/09/22 08:07:30;;;;;;;11.95;7.18;;;;;;;;;;4972680;28;20572;-73
2022/09/22 08:09:55;;;;;;;8.07;7.28;;;;;;;;;;4969225;28;20239;-75
2022/09/22 08:12:20;;;;;;;9.77;7.50;;;;;;;;;;4968924;28;20251;-73
2022/09/22 08:14:46;;;;;;;8.30;6.95;;;;;;;;;;4967605;28;20184;-75
2022/09/22 08:17:11;;;;;;;7.22;5.80;;;;;;;;;;4970889;28;20566;-75
2022/09/22 08:19:37;;;;;;;9.27;6.20;;;;;;;;;;4947558;28;20231;-74
2022/09/22 08:22:02;;;;;;;6.43;5.75;;;;;;;;;;4972463;28;20267;-74
2022/09/22 08:24:27;;;;;;;7.55;6.45;;;;;;;;;;4972331;28;20614;-74
2022/09/22 08:26:54;;;;;;;7.68;6.28;;;;;;;;;;4970205;28;20203;-74
2022/09/22 08:29:20;;;;;;;7.05;5.35;;;;;;;;;;4972381;28;20220;-74
2022/09/22 08:31:46;;;;;;;7.53;5.65;;;;;;;;;;4972445;28;20196;-74
2022/09/22 08:34:13;;;;;;;6.50;5.90;;;;;;;;;;4973180;28;20198;-74
2022/09/22 08:36:38;;;;;;;10.00;5.78;;;;;;;;;;4972539;28;20600;-75
2022/09/22 08:39:05;;;;;;;6.22;5.57;;;;;;;;;;4958168;28;20200;-74
2022/09/22 08:41:30;;;;;;;6.00;5.00;;;;;;;;;;4969729;28;20585;-75
2022/09/22 08:44:00;;;;;;;7.07;5.67;;;;;;;;;;4972263;28;20176;-74
2022/09/22 08:46:28;;;;;;;8.18;5.38;;;;;;;;;;4971916;28;20414;-75
2022/09/22 08:51:53;;;;;;;7.00;4.47;;;;;;;;;;4971965;28;20211;-72
2022/09/22 08:54:20;;;;;;;5.50;4.95;;;;;;;;;;4955228;28;20646;-74
2022/09/22 08:56:50;;;;;;;5.20;4.70;;;;;;;;;;4971729;28;20188;-74
2022/09/22 08:59:21;;;;;;;7.90;5.20;;;;;;;;;;4972725;28;20666;-74
2022/09/22 09:01:50;;;;;;;6.30;4.85;;;;;;;;;;4965174;28;20180;-74
2022/09/22 09:04:35;;;;;;;6.32;4.53;;;;;;;;;;4954814;28;20192;-74
2022/09/22 09:07:10;;;;;;;5.70;4.38;;;;;;;;;;4967281;28;20204;-73
2022/09/22 09:09:54;;;;;;;7.43;4.45;;;;;;;;;;4970409;28;20258;-71
2022/09/22 09:12:37;;;;;;;6.03;4.75;;;;;;;;;;4967321;28;20568;-73
2022/09/22 09:15:06;;;;;;;5.90;5.05;;;;;;;;;;4970834;28;20176;-72
2022/09/22 09:17:36;;;;;;;6.18;5.45;;;;;;;;;;4972456;28;20188;-72
2022/09/22 09:20:14;;;;;;;8.10;5.15;;;;;;;;;;4963006;28;20235;-72
2022/09/22 09:22:40;;;;;;;7.70;5.22;;;;;;;;;;4964290;28;20187;-73
2022/09/22 09:25:07;;;;;;;8.20;5.15;;;;;;;;;;4971820;28;20177;-72
2022/09/22 09:27:38;;;;;;;7.10;5.25;;;;;;;;;;4972447;28;20266;-73
2022/09/22 09:30:09;;;;;;;6.45;4.95;;;;;;;;;;4972468;28;20188;-73
2022/09/22 09:32:42;;;;;;;5.45;4.65;;;;;;;;;;4972840;28;20181;-72
2022/09/22 09:35:11;;;;;;;9.68;5.50;;;;;;;;;;4972727;28;20172;-72
2022/09/22 09:37:36;;;;;;;9.75;5.35;;;;;;;;;;4966580;28;20181;-73
2022/09/22 09:40:02;;;;;;;5.93;5.18;;;;;;;;;;4962204;28;20556;-72
2022/09/22 09:42:32;;;;;;;6.75;5.15;;;;;;;;;;4971166;28;20177;-73
2022/09/22 09:45:01;;;;;;;7.00;5.72;;;;;;;;;;4972290;28;20187;-72
2022/09/22 09:47:46;;;;;;;7.68;5.57;;;;;;;;;;4972057;28;20753;-72
2022/09/22 09:50:11;;;;;;;6.32;5.00;;;;;;;;;;4972684;28;20498;-72
2022/09/22 09:52:37;;;;;;;6.95;6.05;;;;;;;;;;4972067;28;20181;-72
2022/09/22 09:55:13;;;;;;;7.63;6.22;;;;;;;;;;4966403;28;20180;-72
2022/09/22 09:57:58;;;;;;;7.60;6.18;;;;;;;;;;4965690;28;20194;-72
2022/09/22 10:00:32;;;;;;;6.55;5.80;;;;;;;;;;4969429;28;20564;-72
2022/09/22 10:03:36;;;;;;;9.20;6.50;;;;;;;;;;4971328;28;20171;-72
2022/09/22 10:06:06;;;;;;;6.18;5.55;;;;;;;;;;4907339;29;20190;-72
2022/09/22 10:08:35;;;;;;;7.35;5.85;;;;;;;;;;4912411;29;20222;-73
2022/09/22 10:11:01;;;;;;;6.45;5.75;;;;;;;;;;4941929;28;20208;-72
2022/09/22 10:13:37;;;;;;;6.70;5.68;;;;;;;;;;4960532;28;20177;-72
2022/09/22 10:16:19;;;;;;;5.88;4.45;;;;;;;;;;4969916;28;20271;-73
2022/09/22 10:18:45;;;;;;;5.25;4.75;;;;;;;;;;4966808;28;20216;-72
2022/09/22 10:21:14;;;;;;;7.00;5.20;;;;;;;;;;4971734;28;20566;-72
2022/09/22 10:23:41;;;;;;;7.45;5.05;;;;;;;;;;4971769;28;20551;-73
2022/09/22 10:26:26;;;;;;;5.82;5.28;;;;;;;;;;4972112;28;20177;-73
2022/09/22 10:29:07;;;;;;;7.95;5.57;;;;;;;;;;4961912;28;20259;-72
2022/09/22 10:31:36;;;;;;;7.45;4.78;;;;;;;;;;4966043;28;20626;-72
2022/09/22 10:34:01;;;;;;;6.78;4.60;;;;;;;;;;4953235;28;20311;-72
2022/09/22 10:36:28;;;;;;;5.97;4.20;;;;;;;;;;4971969;28;20208;-73
2022/09/22 10:38:53;;;;;;;6.78;4.40;;;;;;;;;;4971094;28;20441;-72
2022/09/22 10:41:26;;;;;;;4.43;4.03;;;;;;;;;;4971605;28;20253;-72
2022/09/22 10:43:58;;;;;;;4.20;3.75;;;;;;;;;;4971875;28;20646;-72
2022/09/22 10:46:33;;;;;;;5.28;3.88;;;;;;;;;;4964152;28;20208;-72
2022/09/22 10:49:11;;;;;;;4.55;4.00;;;;;;;;;;4946072;29;20215;-72
2022/09/22 10:51:53;;;;;;;6.10;3.78;;;;;;;;;;4970695;28;20168;-73
2022/09/22 10:54:24;;;;;;;7.25;4.25;;;;;;;;;;4974101;28;20172;-72
2022/09/22 10:56:54;;;;;;;6.07;3.53;;;;;;;;;;4976801;28;20180;-72
2022/09/22 10:59:38;;;;;;;4.18;3.10;;;;;;;;;;4977913;28;20215;-72
2022/09/22 11:02:19;;;;;;;4.25;3.33;;;;;;;;;;4975021;28;20311;-72
2022/09/22 11:04:56;;;;;;;3.53;2.70;;;;;;;;;;4962641;28;20180;-73
2022/09/22 11:13:19;;;;;;;5.43;2.50;;;;;;;;;;4974937;28;20230;-72
2022/09/22 11:16:04;;;;;;;4.50;2.95;;;;;;;;;;4970245;28;20536;-72
2022/09/22 11:18:48;;;;;;;4.57;3.78;;;;;;;;;;4974612;28;20204;-73
2022/09/22 11:21:30;;;;;;;3.40;3.10;;;;;;;;;;4970446;28;20172;-73
2022/09/22 11:24:07;;;;;;;3.47;2.85;;;;;;;;;;4971678;28;20181;-72
2022/09/22 11:26:32;;;;;;;4.25;2.10;;;;;;;;;;4974647;28;20557;-72
2022/09/22 11:29:19;;;;;;;2.40;1.98;;;;;;;;;;4973608;28;20218;-72
2022/09/22 11:31:48;;;;;;;3.10;2.28;;;;;;;;;;4974222;28;20179;-72
2022/09/22 11:34:17;;;;;;;3.75;2.13;;;;;;;;;;4974466;28;20264;-72
2022/09/22 11:37:24;;;;;;;3.72;2.60;;;;;;;;;;4971267;28;20176;-72
2022/09/22 11:39:52;;;;;;;3.45;2.40;;;;;;;;;;4968378;28;20235;-72
2022/09/22 11:42:27;;;;;;;2.95;2.22;;;;;;;;;;4970096;28;20184;-73
2022/09/22 11:45:11;;;;;;;3.75;2.15;;;;;;;;;;4974184;28;20195;-72
2022/09/22 11:47:59;;;;;;;2.15;1.60;;;;;;;;;;4974244;28;20270;-72
2022/09/22 11:50:45;;;;;;;2.67;1.48;;;;;;;;;;4945709;28;20710;-73
2022/09/22 11:53:28;;;;;;;2.85;1.70;;;;;;;;;;4934343;28;20199;-73
2022/09/22 11:55:55;;;;;;;2.25;2.05;;;;;;;;;;4967206;28;20212;-72
2022/09/22 11:58:22;;;;;;;2.47;2.03;;;;;;;;;;4967706;28;20683;-73
2022/09/22 12:01:00;;;;;;;2.30;2.10;;;;;;;;;;4967787;28;20185;-72
2022/09/22 12:03:27;;;;;;;2.70;1.88;;;;;;;;;;4972101;28;20208;-71
2022/09/22 12:06:02;;;;;;;2.03;1.80;;;;;;;;;;4956050;28;20220;-72
2022/09/22 12:08:28;;;;;;;5.75;2.55;;;;;;;;;;4973048;28;20210;-72
2022/09/22 12:10:54;;;;;;;4.40;2.20;;;;;;;;;;4970761;28;20682;-72
2022/09/22 12:13:22;;;;;;;2.13;1.92;;;;;;;;;;4973863;28;20177;-71
2022/09/22 12:15:53;;;;;;;3.75;1.48;;;;;;;;;;4967922;28;20192;-72
2022/09/22 12:18:42;;;;;;;1.77;1.40;;;;;;;;;;4966859;28;20687;-71
2022/09/22 12:21:07;;;;;;;1.73;1.00;;;;;;;;;;4972705;28;20547;-72
2022/09/22 12:23:37;;;;;;;3.10;0.97;;;;;;;;;;4972355;28;20192;-72
2022/09/22 12:26:10;;;;;;;2.15;1.58;;;;;;;;;;4972847;28;20448;-72
2022/09/22 12:28:40;;;;;;;2.38;0.90;;;;;;;;;;4973315;28;20629;-71
2022/09/22 12:31:09;;;;;;;1.20;0.85;;;;;;;;;;4973581;28;20180;-72
2022/09/22 12:33:35;;;;;;;2.42;1.10;;;;;;;;;;4964537;28;20173;-71
2022/09/22 12:36:01;;;;;;;3.75;1.85;;;;;;;;;;4969626;28;20184;-71
2022/09/22 12:38:28;;;;;;;1.50;1.10;;;;;;;;;;4973210;28;20689;-71
2022/09/22 12:40:57;;;;;;;1.05;0.82;;;;;;;;;;4973124;28;20180;-71
2022/09/22 12:43:22;;;;;;;1.58;0.82;;;;;;;;;;4955826;28;20206;-71
2022/09/22 12:45:48;;;;;;;2.17;0.93;;;;;;;;;;4971385;28;20339;-71
2022/09/22 12:48:13;;;;;;;3.25;0.80;;;;;;;;;;4972858;28;20638;-74
2022/09/22 12:50:40;;;;;;;1.27;0.80;;;;;;;;;;4973157;28;20642;-71
2022/09/22 12:53:20;;;;;;;1.75;1.02;;;;;;;;;;4956969;28;20473;-71
2022/09/22 12:55:47;;;;;;;1.95;0.65;;;;;;;;;;4976034;28;20172;-72
2022/09/22 12:58:22;;;;;;;1.48;0.60;;;;;;;;;;4972381;28;20207;-71
2022/09/22 13:00:51;;;;;;;1.40;0.70;;;;;;;;;;4955170;28;20176;-72
2022/09/22 13:03:25;;;;;;;3.10;1.02;;;;;;;;;;4969772;28;20534;-71
2022/09/22 13:05:51;;;;;;;1.77;0.80;;;;;;;;;;4966069;28;20181;-72
2022/09/22 13:08:37;;;;;;;2.45;1.00;;;;;;;;;;4950441;28;20217;-72
2022/09/22 13:11:03;;;;;;;2.00;0.95;;;;;;;;;;4938726;28;20196;-72
2022/09/22 13:13:28;;;;;;;2.15;0.95;;;;;;;;;;4972974;28;20721;-71
2022/09/22 13:15:55;;;;;;;2.43;0.80;;;;;;;;;;4971768;28;20218;-72
2022/09/22 13:18:37;;;;;;;1.55;0.73;;;;;;;;;;4972521;28;20707;-72
2022/09/22 13:21:12;;;;;;;3.50;1.15;;;;;;;;;;4966802;28;20334;-72
2022/09/22 13:23:37;;;;;;;1.35;0.80;;;;;;;;;;4973025;28;20269;-72
2022/09/22 13:26:07;;;;;;;2.50;0.82;;;;;;;;;;4964733;28;20227;-72
2022/09/22 13:28:32;;;;;;;1.33;0.82;;;;;;;;;;4964346;28;20208;-72
2022/09/22 13:31:02;;;;;;;1.23;0.80;;;;;;;;;;4970745;28;20169;-72
2022/09/22 13:33:31;;;;;;;1.25;0.63;;;;;;;;;;4970424;28;20168;-71
2022/09/22 13:36:04;;;;;;;2.80;1.20;;;;;;;;;;4966428;28;20263;-71
2022/09/22 13:38:32;;;;;;;1.50;0.85;;;;;;;;;;4971600;28;20196;-71
2022/09/22 13:40:57;;;;;;;1.50;1.20;;;;;;;;;;4971839;28;20558;-72
2022/09/22 13:43:26;;;;;;;2.03;0.97;;;;;;;;;;4968604;28;20184;-71
2022/09/22 13:45:51;;;;;;;1.80;1.05;;;;;;;;;;4964505;28;20418;-71
2022/09/22 13:48:17;;;;;;;1.58;1.00;;;;;;;;;;4971802;28;20577;-71
2022/09/22 13:51:08;;;;;;;1.75;1.05;;;;;;;;;;4967209;28;20165;-71
2022/09/22 13:53:34;;;;;;;1.45;1.00;;;;;;;;;;4963162;28;20188;-72
2022/09/22 13:55:59;;;;;;;1.42;1.10;;;;;;;;;;4971770;28;20180;-72
2022/09/22 13:58:30;;;;;;;2.67;0.80;;;;;;;;;;4971775;28;20211;-71
2022/09/22 14:00:56;;;;;;;3.88;1.10;;;;;;;;;;4971946;28;20251;-72
2022/09/22 14:03:22;;;;;;;1.00;0.80;;;;;;;;;;4962572;28;20216;-71
2022/09/22 14:05:47;;;;;;;3.78;1.30;;;;;;;;;;4953210;28;20615;-72
2022/09/22 14:08:15;;;;;;;2.75;1.00;;;;;;;;;;4972146;28;20300;-72
2022/09/22 14:10:42;;;;;;;1.33;0.90;;;;;;;;;;4971454;28;20199;-72
2022/09/22 14:13:26;;;;;;;1.25;0.95;;;;;;;;;;4971770;28;20269;-72
2022/09/22 14:15:52;;;;;;;2.55;1.05;;;;;;;;;;4965225;28;20183;-71
2022/09/22 14:18:25;;;;;;;2.90;1.05;;;;;;;;;;4963629;28;20233;-73
2022/09/22 14:20:52;;;;;;;2.15;1.02;;;;;;;;;;4966696;28;20304;-72
2022/09/22 14:23:28;;;;;;;1.30;0.85;;;;;;;;;;4971718;28;20667;-73
2022/09/22 14:25:55;;;;;;;1.05;0.82;;;;;;;;;;4971483;28;20180;-73
2022/09/22 14:28:22;;;;;;;2.47;1.20;;;;;;;;;;4972641;28;20208;-73
2022/09/22 14:30:48;;;;;;;1.58;0.70;;;;;;;;;;4975532;28;20172;-72
2022/09/22 14:33:16;;;;;;;1.38;1.05;;;;;;;;;;4975847;28;20658;-72
2022/09/22 14:35:42;;;;;;;1.27;0.93;;;;;;;;;;4975410;28;20180;-72
2022/09/22 14:38:07;;;;;;;1.80;0.88;;;;;;;;;;4966649;28;20200;-73
2022/09/22 14:40:33;;;;;;;1.83;1.08;;;;;;;;;;4974110;28;20188;-72
2022/09/22 14:43:02;;;;;;;2.65;0.77;;;;;;;;;;4973944;28;20223;-72
2022/09/22 14:45:28;;;;;;;2.75;1.10;;;;;;;;;;4975530;28;20296;-72
2022/09/22 14:48:11;;;;;;;1.35;1.00;;;;;;;;;;4975406;28;20702;-73
2022/09/22 14:50:38;;;;;;;3.05;0.82;;;;;;;;;;4975088;28;20192;-73
2022/09/22 14:53:17;;;;;;;4.25;1.50;;;;;;;;;;4977872;28;20184;-72
2022/09/22 14:55:44;;;;;;;1.17;1.05;;;;;;;;;;4954417;28;20737;-73
2022/09/22 14:58:19;;;;;;;1.20;1.10;;;;;;;;;;4968494;28;20227;-72
2022/09/22 15:03:37;;;;;;;1.55;0.90;;;;;;;;;;4975335;28;20231;-72
2022/09/22 15:06:07;;;;;;;1.55;0.90;;;;;;;;;;4956635;28;20184;-73
2022/09/22 15:08:32;;;;;;;2.45;1.38;;;;;;;;;;4974254;28;20244;-73